createdAt,value
2022-09-09T00:00:26.718Z,6.88
2022-09-09T00:03:13.858Z,6.55
2022-09-09T00:06:08.713Z,7.28
2022-09-09T00:08:50.688Z,6.60
2022-09-09T00:11:30.744Z,7.30
2022-09-09T00:14:04.482Z,7.55
2022-09-09T00:16:37.228Z,6.75
2022-09-09T00:19:18.999Z,6.90
2022-09-09T00:22:15.187Z,7.93
2022-09-09T00:24:44.338Z,6.80
2022-09-09T00:27:39.377Z,6.85
2022-09-09T00:30:27.029Z,6.28
2022-09-09T00:33:02.783Z,7.43
2022-09-09T00:35:37.878Z,6.70
2022-09-09T00:38:15.050Z,6.97
2022-09-09T00:40:57.296Z,7.82
2022-09-09T00:43:31.383Z,7.07
2022-09-09T00:46:21.131Z,6.75
2022-09-09T00:49:15.004Z,7.32
2022-09-09T00:52:09.249Z,7.00
2022-09-09T00:54:46.924Z,7.97
2022-09-09T00:57:19.256Z,7.55
2022-09-09T00:59:53.500Z,6.95
2022-09-09T01:02:45.380Z,7.57
2022-09-09T01:05:23.769Z,7.25
2022-09-09T01:07:55.049Z,7.72
2022-09-09T01:10:38.697Z,7.95
2022-09-09T01:13:15.949Z,7.65
2022-09-09T01:15:45.641Z,7.53
2022-09-09T01:18:18.305Z,7.93
2022-09-09T01:21:02.461Z,8.50
2022-09-09T01:23:29.419Z,7.68
2022-09-09T01:26:22.237Z,8.15
2022-09-09T01:28:53.763Z,8.45
2022-09-09T01:31:33.988Z,7.85
2022-09-09T01:34:01.056Z,8.35
2022-09-09T01:36:47.484Z,7.68
2022-09-09T01:39:15.246Z,7.85
2022-09-09T01:41:44.089Z,8.40
2022-09-09T01:44:14.187Z,8.50
2022-09-09T01:46:44.787Z,8.15
2022-09-09T01:49:20.426Z,8.85
2022-09-09T01:51:51.319Z,8.90
2022-09-09T01:54:21.391Z,7.70
2022-09-09T01:57:09.717Z,8.07
2022-09-09T01:59:53.417Z,8.03
2022-09-09T02:02:31.925Z,8.30
2022-09-09T02:05:22.747Z,8.07
2022-09-09T02:07:54.278Z,8.20
2022-09-09T02:10:38.869Z,8.75
2022-09-09T02:13:26.239Z,9.00
2022-09-09T02:16:09.399Z,8.98
2022-09-09T02:18:38.828Z,8.70
2022-09-09T02:21:08.016Z,8.27
2022-09-09T02:23:37.159Z,9.40
2022-09-09T02:26:11.476Z,8.43
2022-09-09T02:28:40.570Z,8.55
2022-09-09T02:31:07.920Z,9.30
2022-09-09T02:33:46.902Z,8.05
2022-09-09T02:36:17.458Z,9.18
2022-09-09T02:38:51.833Z,8.88
2022-09-09T02:41:36.262Z,9.57
2022-09-09T02:44:07.211Z,8.52
2022-09-09T02:47:05.260Z,9.90
2022-09-09T02:49:51.153Z,9.00
2022-09-09T02:52:27.821Z,8.88
2022-09-09T02:55:05.602Z,8.88
2022-09-09T02:57:34.304Z,8.27
2022-09-09T03:00:02.836Z,8.93
2022-09-09T03:02:31.878Z,8.98
2022-09-09T03:05:04.638Z,8.98
2022-09-09T03:07:31.717Z,8.70
2022-09-09T03:09:59.897Z,8.88
2022-09-09T03:12:28.430Z,9.85
2022-09-09T03:14:55.498Z,10.00
2022-09-09T03:17:24.638Z,10.02
2022-09-09T03:19:56.202Z,9.20
2022-09-09T03:22:23.348Z,9.55
2022-09-09T03:24:50.471Z,10.45
2022-09-09T03:27:18.612Z,10.43
2022-09-09T03:29:46.285Z,10.38
2022-09-09T03:32:20.122Z,9.60
2022-09-09T03:34:48.600Z,10.95
2022-09-09T03:37:16.628Z,10.18
2022-09-09T03:39:43.764Z,11.02
2022-09-09T03:42:19.846Z,10.98
2022-09-09T03:44:51.548Z,9.95
2022-09-09T03:47:22.974Z,10.30
2022-09-09T03:49:52.717Z,11.07
2022-09-09T03:52:23.530Z,10.88
2022-09-09T03:54:52.557Z,10.20
2022-09-09T03:57:20.527Z,10.98
2022-09-09T03:59:47.717Z,11.27
2022-09-09T04:02:15.333Z,10.85
2022-09-09T04:04:42.585Z,10.38
2022-09-09T04:07:09.953Z,11.07
2022-09-09T04:09:37.017Z,10.50
2022-09-09T04:12:04.127Z,12.95
2022-09-09T04:14:31.717Z,12.05
2022-09-09T04:17:00.687Z,11.32
2022-09-09T04:19:27.676Z,11.43
2022-09-09T04:21:54.818Z,12.57
2022-09-09T04:24:23.359Z,11.75
2022-09-09T04:26:51.250Z,11.15
2022-09-09T04:29:18.477Z,12.70
2022-09-09T04:31:45.839Z,12.60
2022-09-09T04:34:13.761Z,13.27
2022-09-09T04:36:41.678Z,13.57
2022-09-09T04:39:09.677Z,10.50
2022-09-09T04:41:36.747Z,13.13
2022-09-09T04:44:04.878Z,12.02
2022-09-09T04:46:35.478Z,11.57
2022-09-09T04:49:02.666Z,12.02
2022-09-09T04:51:32.372Z,13.27
2022-09-09T04:53:59.723Z,12.98
2022-09-09T04:56:28.134Z,12.68
2022-09-09T04:58:59.582Z,12.90
2022-09-09T05:01:40.589Z,13.32
2022-09-09T05:04:08.021Z,13.02
2022-09-09T05:06:35.258Z,14.35
2022-09-09T05:09:02.881Z,12.20
2022-09-09T05:11:33.806Z,12.88
2022-09-09T05:14:06.719Z,13.07
2022-09-09T05:16:34.357Z,13.48
2022-09-09T05:19:01.532Z,12.40
2022-09-09T05:21:37.049Z,12.98
2022-09-09T05:24:04.279Z,13.75
2022-09-09T05:26:32.805Z,13.55
2022-09-09T05:29:01.645Z,13.80
2022-09-09T05:31:32.071Z,14.07
2022-09-09T05:34:02.578Z,14.23
2022-09-09T05:36:29.816Z,14.32
2022-09-09T05:38:57.588Z,14.15
2022-09-09T05:41:26.944Z,14.82
2022-09-09T05:43:56.217Z,14.48
2022-09-09T05:46:26.338Z,15.65
2022-09-09T05:48:55.222Z,14.80
2022-09-09T05:51:31.353Z,14.35
2022-09-09T05:54:02.247Z,15.38
2022-09-09T05:56:33.670Z,15.77
2022-09-09T05:59:02.118Z,17.08
2022-09-09T06:01:32.129Z,14.80
2022-09-09T06:04:00.115Z,14.73
2022-09-09T06:06:38.067Z,16.45
2022-09-09T06:09:11.662Z,16.85
2022-09-09T06:11:42.382Z,17.17
2022-09-09T06:14:10.445Z,17.80
2022-09-09T06:16:44.325Z,19.00
2022-09-09T06:19:19.355Z,19.05
2022-09-09T06:21:46.401Z,17.45
2022-09-09T06:24:15.081Z,18.65
2022-09-09T06:26:42.937Z,18.90
2022-09-09T06:29:13.637Z,20.60
2022-09-09T06:31:42.683Z,21.65
2022-09-09T06:34:16.410Z,21.10
2022-09-09T06:36:47.650Z,20.88
2022-09-09T06:39:16.607Z,19.90
2022-09-09T06:41:44.205Z,19.73
2022-09-09T06:44:40.267Z,19.65
2022-09-09T06:47:12.322Z,19.45
2022-09-09T06:49:41.019Z,19.03
2022-09-09T06:52:10.900Z,20.15
2022-09-09T06:54:38.863Z,20.35
2022-09-09T06:57:33.787Z,21.40
2022-09-09T06:59:56.829Z,20.52
2022-09-09T07:02:24.949Z,21.05
2022-09-09T07:04:52.842Z,20.15
2022-09-09T07:07:20.147Z,22.25
2022-09-09T07:09:47.448Z,21.30
2022-09-09T07:12:14.922Z,21.52
2022-09-09T07:14:49.402Z,22.48
2022-09-09T07:17:16.557Z,23.00
2022-09-09T07:19:44.411Z,23.58
2022-09-09T07:22:11.920Z,21.27
2022-09-09T07:24:39.781Z,22.38
2022-09-09T07:27:07.582Z,23.23
2022-09-09T07:29:36.329Z,21.45
2022-09-09T07:32:05.490Z,22.38
2022-09-09T07:34:36.542Z,19.83
2022-09-09T07:37:04.016Z,21.45
2022-09-09T07:39:32.694Z,22.85
2022-09-09T07:42:00.086Z,20.48
2022-09-09T07:44:28.214Z,19.38
2022-09-09T07:47:05.304Z,20.08
2022-09-09T07:49:40.036Z,20.08
2022-09-09T07:52:08.955Z,20.73
2022-09-09T07:54:38.389Z,18.27
2022-09-09T07:57:06.979Z,19.73
2022-09-09T07:59:36.368Z,20.58
2022-09-09T08:02:04.296Z,19.90
2022-09-09T08:04:33.951Z,18.10
2022-09-09T08:07:02.462Z,19.85
2022-09-09T08:09:34.820Z,18.40
2022-09-09T08:12:14.299Z,20.42
2022-09-09T08:14:41.770Z,18.83
2022-09-09T08:17:09.223Z,18.58
2022-09-09T08:19:37.123Z,18.65
2022-09-09T08:22:09.722Z,18.73
2022-09-09T08:24:40.467Z,18.25
2022-09-09T08:27:08.297Z,17.05
2022-09-09T08:29:35.755Z,15.27
2022-09-09T08:32:03.429Z,16.73
2022-09-09T08:34:32.486Z,14.98
2022-09-09T08:37:03.849Z,16.33
2022-09-09T08:39:38.542Z,16.48
2022-09-09T08:42:27.737Z,15.27
2022-09-09T08:45:17.387Z,15.80
2022-09-09T08:47:53.746Z,14.32
2022-09-09T08:50:33.700Z,13.13
2022-09-09T08:53:09.928Z,13.82
2022-09-09T08:55:57.277Z,12.50
2022-09-09T08:58:36.482Z,12.88
2022-09-09T09:01:18.617Z,12.25
2022-09-09T09:04:16.400Z,13.10
2022-09-09T09:07:14.741Z,13.88
2022-09-09T09:10:30.473Z,13.15
2022-09-09T09:12:59.402Z,14.52
2022-09-09T09:15:32.748Z,13.38
2022-09-09T09:18:00.661Z,12.93
2022-09-09T09:21:13.168Z,14.30
2022-09-09T09:23:56.465Z,12.45
2022-09-09T09:26:27.719Z,13.02
2022-09-09T09:28:58.441Z,13.18
2022-09-09T09:31:28.132Z,12.80
2022-09-09T09:33:57.410Z,13.82
2022-09-09T09:36:42.566Z,12.35
2022-09-09T09:42:21.676Z,13.30
2022-09-09T09:44:51.251Z,10.85
2022-09-09T09:47:23.106Z,13.20
2022-09-09T09:50:06.214Z,12.27
2022-09-09T09:52:38.132Z,11.93
2022-09-09T09:55:15.149Z,11.93
2022-09-09T09:57:45.894Z,12.07
2022-09-09T10:00:18.617Z,12.05
2022-09-09T10:02:53.787Z,10.75
2022-09-09T10:05:29.080Z,11.13
2022-09-09T10:08:20.332Z,10.55
2022-09-09T10:11:02.532Z,11.55
2022-09-09T10:13:44.729Z,11.35
2022-09-09T10:16:40.086Z,10.98
2022-09-09T10:19:14.188Z,11.48
2022-09-09T10:22:07.876Z,11.13
2022-09-09T10:24:50.410Z,11.27
2022-09-09T10:27:38.241Z,11.05
2022-09-09T10:30:20.079Z,9.30
2022-09-09T10:32:53.368Z,10.80
2022-09-09T10:35:29.146Z,10.55
2022-09-09T10:38:21.778Z,10.13
2022-09-09T10:40:56.599Z,9.20
2022-09-09T10:43:42.108Z,8.82
2022-09-09T10:46:38.083Z,8.07
2022-09-09T10:49:39.150Z,9.30
2022-09-09T10:52:36.877Z,8.65
2022-09-09T10:55:15.028Z,8.63
2022-09-09T10:57:51.196Z,8.20
2022-09-09T11:00:25.642Z,7.45
2022-09-09T11:03:19.895Z,6.75
2022-09-09T11:06:25.894Z,6.45
2022-09-09T11:08:57.061Z,7.55
2022-09-09T11:11:40.414Z,7.00
2022-09-09T11:14:21.299Z,6.78
2022-09-09T11:16:55.362Z,9.18
2022-09-09T11:19:35.409Z,9.60
2022-09-09T11:22:26.567Z,7.50
2022-09-09T11:25:01.495Z,7.40
2022-09-09T11:27:40.536Z,7.90
2022-09-09T11:30:44.101Z,7.80
2022-09-09T11:35:54.963Z,7.35
2022-09-09T11:38:22.349Z,7.05
2022-09-09T11:41:00.747Z,6.68
2022-09-09T11:43:54.192Z,7.18
2022-09-09T11:46:34.909Z,6.75
2022-09-09T11:49:04.980Z,6.80
2022-09-09T11:51:33.990Z,6.78
2022-09-09T11:54:24.621Z,7.80
2022-09-09T11:56:51.786Z,7.50
2022-09-09T11:59:30.367Z,7.47
2022-09-09T12:02:20.110Z,7.05
2022-09-09T12:05:10.061Z,7.95
2022-09-09T12:07:55.060Z,7.90
2022-09-09T12:10:27.908Z,8.25
2022-09-09T12:12:55.094Z,8.48
2022-09-09T12:15:30.374Z,9.70
2022-09-09T12:18:03.804Z,10.73
2022-09-09T12:20:32.416Z,10.27
2022-09-09T12:23:20.431Z,10.88
2022-09-09T12:26:05.078Z,10.48
2022-09-09T12:29:00.923Z,12.35
2022-09-09T12:31:48.611Z,11.25
2022-09-09T12:34:33.566Z,12.55
2022-09-09T12:37:07.540Z,12.32
2022-09-09T12:39:39.783Z,11.52
2022-09-09T12:42:18.248Z,12.63
2022-09-09T12:45:04.367Z,12.80
2022-09-09T12:47:41.667Z,12.93
2022-09-09T12:50:27.004Z,13.07
2022-09-09T12:53:00.829Z,13.05
2022-09-09T12:55:34.844Z,11.40
2022-09-09T12:58:07.277Z,10.77
2022-09-09T13:00:35.819Z,11.68
2022-09-09T13:03:18.500Z,12.40
2022-09-09T13:05:47.971Z,12.27
2022-09-09T13:08:19.670Z,11.90
2022-09-09T13:11:02.902Z,13.13
2022-09-09T13:13:39.898Z,12.30
2022-09-09T13:16:19.405Z,12.38
2022-09-09T13:18:47.056Z,15.47
2022-09-09T13:21:15.451Z,13.60
2022-09-09T13:23:42.865Z,12.23
2022-09-09T13:26:27.468Z,13.68
2022-09-09T13:28:55.952Z,12.98
2022-09-09T13:31:37.264Z,13.98
2022-09-09T13:34:36.850Z,14.45
2022-09-09T13:37:07.188Z,13.75
2022-09-09T13:42:08.291Z,13.07
2022-09-09T13:44:40.470Z,13.25
2022-09-09T13:47:23.891Z,13.95
2022-09-09T13:49:50.987Z,14.00
2022-09-09T13:52:20.069Z,15.88
2022-09-09T13:54:52.277Z,18.00
2022-09-09T13:57:21.300Z,19.13
2022-09-09T14:00:05.445Z,18.75
2022-09-09T14:02:32.791Z,17.20
2022-09-09T14:04:59.914Z,16.63
2022-09-09T14:07:28.022Z,14.77
2022-09-09T14:09:55.038Z,17.33
2022-09-09T14:12:22.186Z,18.95
2022-09-09T14:14:49.230Z,18.90
2022-09-09T14:17:16.370Z,18.13
2022-09-09T14:19:43.936Z,18.45
2022-09-09T14:22:11.074Z,17.20
2022-09-09T14:24:38.280Z,19.45
2022-09-09T14:27:05.309Z,21.00
2022-09-09T14:29:32.412Z,20.50
2022-09-09T14:32:02.065Z,19.15
2022-09-09T14:34:29.158Z,20.38
2022-09-09T14:36:56.993Z,20.55
2022-09-09T14:39:23.951Z,21.13
2022-09-09T14:41:51.167Z,21.65
2022-09-09T14:44:18.331Z,21.27
2022-09-09T14:46:45.667Z,22.20
2022-09-09T14:49:13.981Z,21.50
2022-09-09T14:51:41.144Z,21.25
2022-09-09T14:54:08.119Z,22.80
2022-09-09T14:56:35.934Z,22.58
2022-09-09T14:59:03.701Z,23.40
2022-09-09T15:01:32.107Z,22.85
2022-09-09T15:04:01.686Z,23.85
2022-09-09T15:06:32.828Z,22.58
2022-09-09T15:09:01.507Z,22.33
2022-09-09T15:11:31.979Z,23.10
2022-09-09T15:13:59.787Z,23.02
2022-09-09T15:16:29.228Z,24.02
2022-09-09T15:18:59.490Z,24.90
2022-09-09T15:23:55.113Z,25.50
2022-09-09T15:26:22.515Z,26.80
2022-09-09T15:28:50.935Z,26.60
2022-09-09T15:31:22.156Z,25.95
2022-09-09T15:33:53.569Z,27.58
2022-09-09T15:36:26.010Z,25.55
2022-09-09T15:38:54.154Z,25.75
2022-09-09T15:41:23.160Z,25.20
2022-09-09T15:43:53.011Z,24.00
2022-09-09T15:46:33.700Z,25.60
2022-09-09T15:49:11.980Z,24.20
2022-09-09T15:51:44.004Z,24.35
2022-09-09T15:54:19.679Z,23.15
2022-09-09T15:56:49.949Z,24.45
2022-09-09T16:01:45.312Z,24.30
2022-09-09T16:04:12.880Z,22.75
2022-09-09T16:06:40.388Z,22.77
2022-09-09T16:09:08.973Z,22.60
2022-09-09T16:11:38.361Z,22.02
2022-09-09T16:14:07.761Z,23.00
2022-09-09T16:16:36.458Z,20.33
2022-09-09T16:19:08.976Z,21.50
2022-09-09T16:21:39.304Z,22.38
2022-09-09T16:26:37.693Z,20.48
2022-09-09T16:29:05.572Z,18.23
2022-09-09T16:31:35.879Z,17.88
2022-09-09T16:36:33.519Z,18.50
2022-09-09T16:39:03.263Z,20.70
2022-09-09T16:41:31.295Z,22.63
2022-09-09T16:44:06.632Z,24.48
2022-09-09T16:46:37.522Z,25.92
2022-09-09T16:49:06.897Z,27.13
2022-09-09T16:51:37.539Z,25.02
2022-09-09T16:54:09.801Z,23.75
2022-09-09T16:56:42.381Z,23.50
2022-09-09T16:59:17.951Z,22.83
2022-09-09T17:01:47.137Z,19.58
2022-09-09T17:04:21.941Z,17.40
2022-09-09T17:06:50.982Z,15.13
2022-09-09T17:09:19.292Z,19.17
2022-09-09T17:11:46.892Z,13.45
2022-09-09T17:14:17.929Z,12.07
2022-09-09T17:16:45.658Z,9.82
2022-09-09T17:19:13.813Z,11.18
2022-09-09T17:21:54.950Z,11.40
2022-09-09T17:24:30.313Z,13.02
2022-09-09T17:26:58.741Z,13.77
2022-09-09T17:29:26.341Z,13.90
2022-09-09T17:31:53.702Z,13.20
2022-09-09T17:34:20.953Z,11.80
2022-09-09T17:36:48.179Z,13.35
2022-09-09T17:39:15.327Z,14.93
2022-09-09T17:41:42.843Z,17.58
2022-09-09T17:44:10.953Z,17.52
2022-09-09T17:46:41.768Z,19.15
2022-09-09T17:49:11.767Z,18.48
2022-09-09T17:51:39.347Z,19.38
2022-09-09T17:54:10.248Z,21.20
2022-09-09T17:56:38.813Z,21.98
2022-09-09T17:59:08.388Z,23.63
2022-09-09T18:01:39.700Z,25.38
2022-09-09T18:04:09.171Z,24.20
2022-09-09T18:06:41.836Z,26.60
2022-09-09T18:09:13.450Z,27.45
2022-09-09T18:11:47.020Z,27.17
2022-09-09T18:14:20.574Z,26.70
2022-09-09T18:16:49.143Z,25.80
2022-09-09T18:19:19.230Z,26.63
2022-09-09T18:21:47.248Z,26.60
2022-09-09T18:24:16.281Z,25.90
2022-09-09T18:26:44.487Z,26.38
2022-09-09T18:29:14.557Z,26.83
2022-09-09T18:31:42.817Z,27.52
2022-09-09T18:34:13.100Z,29.70
2022-09-09T18:36:49.605Z,28.42
2022-09-09T18:39:18.928Z,31.08
2022-09-09T18:41:52.390Z,30.25
2022-09-09T18:44:22.513Z,28.63
2022-09-09T18:46:50.689Z,31.15
2022-09-09T18:49:19.143Z,29.25
2022-09-09T18:51:47.337Z,28.92
2022-09-09T18:54:21.039Z,30.13
2022-09-09T18:56:49.174Z,29.13
2022-09-09T18:59:20.099Z,28.20
2022-09-09T19:01:48.764Z,27.27
2022-09-09T19:04:16.914Z,29.52
2022-09-09T19:06:47.702Z,30.92
2022-09-09T19:09:17.116Z,31.52
2022-09-09T19:11:44.722Z,31.38
2022-09-09T19:14:14.946Z,31.10
2022-09-09T19:16:42.542Z,32.08
2022-09-09T19:19:14.398Z,32.97
2022-09-09T19:21:42.562Z,33.75
2022-09-09T19:24:13.756Z,32.55
2022-09-09T19:26:47.480Z,32.90
2022-09-09T19:29:21.191Z,33.47
2022-09-09T19:32:14.982Z,33.75
2022-09-09T19:34:36.665Z,32.58
2022-09-09T19:37:04.148Z,33.53
2022-09-09T19:39:33.935Z,34.17
2022-09-09T19:42:01.489Z,33.35
2022-09-09T19:44:28.770Z,36.50
2022-09-09T19:46:55.932Z,32.55
2022-09-09T19:49:23.270Z,35.55
2022-09-09T19:51:50.783Z,35.35
2022-09-09T19:54:17.999Z,34.55
2022-09-09T19:56:45.341Z,34.10
2022-09-09T19:59:15.705Z,33.88
2022-09-09T20:01:44.946Z,32.78
2022-09-09T20:04:14.102Z,32.53
2022-09-09T20:06:44.241Z,34.10
2022-09-09T20:09:17.442Z,32.55
2022-09-09T20:11:46.507Z,32.97
2022-09-09T20:14:14.921Z,31.95
2022-09-09T20:16:42.969Z,32.67
2022-09-09T20:19:12.739Z,30.73
2022-09-09T20:21:50.428Z,29.13
2022-09-09T20:24:19.983Z,30.10
2022-09-09T20:26:48.345Z,28.67
2022-09-09T20:29:19.335Z,27.83
2022-09-09T20:31:47.026Z,26.83
2022-09-09T20:34:19.410Z,28.58
2022-09-09T20:36:47.264Z,27.10
2022-09-09T20:39:17.588Z,29.42
2022-09-09T20:41:46.440Z,29.38
2022-09-09T20:44:16.898Z,29.55
2022-09-09T20:49:18.044Z,28.73
2022-09-09T20:51:46.632Z,27.77
2022-09-09T20:54:19.938Z,29.15
2022-09-09T20:56:48.381Z,30.50
2022-09-09T20:59:20.199Z,28.65
2022-09-09T21:01:47.990Z,30.90
2022-09-09T21:04:17.629Z,31.38
2022-09-09T21:06:45.654Z,29.53
2022-09-09T21:09:14.362Z,29.98
2022-09-09T21:11:42.453Z,30.63
2022-09-09T21:14:09.935Z,28.67
2022-09-09T21:16:37.030Z,28.58
2022-09-09T21:19:04.665Z,28.92
2022-09-09T21:21:31.851Z,30.65
2022-09-09T21:24:00.702Z,30.80
2022-09-09T21:26:28.649Z,30.27
2022-09-09T21:28:56.403Z,31.70
2022-09-09T21:31:27.861Z,29.48
2022-09-09T21:33:57.117Z,30.35
2022-09-09T21:36:24.940Z,31.50
2022-09-09T21:38:52.051Z,29.70
2022-09-09T21:41:19.816Z,31.80
2022-09-09T21:43:51.578Z,31.35
2022-09-09T21:46:18.727Z,31.80
2022-09-09T21:48:46.101Z,31.27
2022-09-09T21:51:16.069Z,30.98
2022-09-09T21:53:43.969Z,30.23
2022-09-09T21:56:16.770Z,28.85
2022-09-09T21:58:43.809Z,31.58
2022-09-09T22:01:16.770Z,30.60
2022-09-09T22:03:45.049Z,32.25
2022-09-09T22:06:15.299Z,30.35
2022-09-09T22:08:42.973Z,31.75
2022-09-09T22:11:22.492Z,31.75
2022-09-09T22:13:50.427Z,32.28
2022-09-09T22:16:20.133Z,31.05
2022-09-09T22:18:59.316Z,31.77
2022-09-09T22:21:29.507Z,32.38
2022-09-09T22:24:01.830Z,32.85
2022-09-09T22:26:32.382Z,32.35
2022-09-09T22:28:59.595Z,34.78
2022-09-09T22:31:28.346Z,32.78
2022-09-09T22:33:55.973Z,33.35
2022-09-09T22:36:24.295Z,33.22
2022-09-09T22:38:52.057Z,32.58
2022-09-09T22:41:19.762Z,32.47
2022-09-09T22:43:47.089Z,34.35
2022-09-09T22:46:14.983Z,37.45
2022-09-09T22:48:42.584Z,35.08
2022-09-09T22:51:14.425Z,37.05
2022-09-09T22:53:42.837Z,33.92
2022-09-09T22:56:17.376Z,33.00
2022-09-09T22:58:46.436Z,35.85
2022-09-09T23:01:17.507Z,33.65
2022-09-09T23:03:46.452Z,36.50
2022-09-09T23:06:20.425Z,33.88
2022-09-09T23:08:50.132Z,35.70
2022-09-09T23:11:17.736Z,34.78
2022-09-09T23:13:53.677Z,34.53
2022-09-09T23:16:24.788Z,35.95
2022-09-09T23:18:52.976Z,35.20
2022-09-09T23:21:20.447Z,36.63
2022-09-09T23:23:47.678Z,35.88
2022-09-09T23:26:21.207Z,35.05
2022-09-09T23:28:50.319Z,33.72
2022-09-09T23:31:20.752Z,36.55
2022-09-09T23:36:17.663Z,35.28
2022-09-09T23:38:45.172Z,35.47
2022-09-09T23:41:15.152Z,36.50
2022-09-09T23:43:44.655Z,34.83
2022-09-09T23:46:14.121Z,37.70
2022-09-09T23:48:42.342Z,37.43
2022-09-09T23:51:17.639Z,36.17
2022-09-09T23:53:49.065Z,34.63
2022-09-09T23:56:16.106Z,35.70
2022-09-09T23:58:43.274Z,35.92
